Time;durP1;ratioP1;P1;durP2;ratioP2;P2;SDS_P1;SDS_P2;PMS_P1;PMS_P2;Temp;Humidity;BMP_temperature;BMP_pressure;BME280_temperature;BME280_humidity;BME280_pressure;Samples;Min_cycle;Max_cycle;Signal;HPM_P1;HPM_P2
2021/01/21 00:00:43;;;;;;;20.58;11.43;;;9.10;99.90;;;;;;4715959;30;20044;-81
2021/01/21 00:03:10;;;;;;;20.92;12.32;;;9.20;99.90;;;;;;4730059;30;20040;-81
2021/01/21 00:05:36;;;;;;;22.23;10.43;;;9.20;99.90;;;;;;4715911;30;20078;-81
2021/01/21 00:08:02;;;;;;;20.88;10.60;;;9.20;99.90;;;;;;4730397;30;20132;-81
2021/01/21 00:10:29;;;;;;;20.58;11.13;;;9.20;99.90;;;;;;4713059;30;20119;-81
2021/01/21 00:12:55;;;;;;;16.40;10.32;;;9.20;99.90;;;;;;4720632;30;20032;-81
2021/01/21 00:15:21;;;;;;;17.33;10.77;;;9.20;99.90;;;;;;4717757;30;20041;-81
2021/01/21 00:17:47;;;;;;;19.73;12.27;;;9.20;99.90;;;;;;4730069;30;20036;-81
2021/01/21 00:20:14;;;;;;;23.40;11.13;;;9.20;99.90;;;;;;4731162;30;20441;-81
2021/01/21 00:22:40;;;;;;;18.52;12.07;;;9.20;99.90;;;;;;4730331;30;20046;-81
2021/01/21 00:25:07;;;;;;;23.23;11.40;;;9.20;99.90;;;;;;4730812;30;20206;-81
2021/01/21 00:27:33;;;;;;;23.88;11.05;;;9.10;99.90;;;;;;4720931;30;20045;-81
2021/01/21 00:29:59;;;;;;;25.60;12.45;;;9.10;99.90;;;;;;4727280;30;20059;-81
2021/01/21 00:32:25;;;;;;;23.75;11.52;;;9.20;99.90;;;;;;4730003;30;20059;-81
2021/01/21 00:34:51;;;;;;;22.73;11.43;;;9.10;99.90;;;;;;4711617;30;20047;-81
2021/01/21 00:37:18;;;;;;;19.98;11.13;;;9.10;99.90;;;;;;4723334;30;20120;-81
2021/01/21 00:39:45;;;;;;;20.20;11.45;;;9.10;99.90;;;;;;4719230;30;20372;-81
2021/01/21 00:42:11;;;;;;;20.83;11.98;;;9.10;99.90;;;;;;4730028;30;20028;-81
2021/01/21 00:44:37;;;;;;;24.92;10.77;;;9.10;99.90;;;;;;4729604;30;20056;-80
2021/01/21 00:47:03;;;;;;;21.80;12.18;;;9.10;99.90;;;;;;4728351;30;20112;-81
2021/01/21 00:49:29;;;;;;;24.60;11.98;;;9.10;99.90;;;;;;4733931;30;20128;-80
2021/01/21 00:51:55;;;;;;;19.70;10.75;;;9.10;99.90;;;;;;4733076;30;20049;-81
2021/01/21 00:54:21;;;;;;;23.48;10.68;;;9.10;99.90;;;;;;4729835;30;20029;-79
2021/01/21 00:56:48;;;;;;;19.38;9.68;;;9.10;99.90;;;;;;4708306;30;20048;-81
2021/01/21 00:59:14;;;;;;;18.83;9.75;;;9.10;99.90;;;;;;4729963;30;20047;-81
2021/01/21 01:01:40;;;;;;;18.05;9.63;;;9.10;99.90;;;;;;4736163;30;20043;-80
2021/01/21 01:04:10;;;;;;;13.50;9.05;;;9.10;99.90;;;;;;4729914;30;20127;-80
2021/01/21 01:06:39;;;;;;;18.42;7.97;;;9.10;99.90;;;;;;4729226;30;20029;-80
2021/01/21 01:09:05;;;;;;;17.25;7.72;;;9.10;99.90;;;;;;4729178;30;20045;-80
2021/01/21 01:11:33;;;;;;;12.23;8.32;;;9.10;99.90;;;;;;4729233;30;20106;-80
2021/01/21 01:14:00;;;;;;;12.23;6.82;;;9.10;99.90;;;;;;4729637;30;20439;-80
2021/01/21 01:16:26;;;;;;;14.38;7.45;;;9.10;99.90;;;;;;4699673;30;20048;-80
2021/01/21 01:19:03;;;;;;;16.45;7.45;;;9.10;99.90;;;;;;4724563;30;20214;-80
2021/01/21 01:21:29;;;;;;;14.65;7.97;;;9.10;99.90;;;;;;4740387;30;20056;-80
2021/01/21 01:23:56;;;;;;;17.70;8.38;;;9.10;99.90;;;;;;4715955;30;20133;-80
2021/01/21 01:26:23;;;;;;;11.52;7.70;;;9.10;99.90;;;;;;4729972;30;20028;-80
2021/01/21 01:28:56;;;;;;;14.00;6.57;;;9.10;99.90;;;;;;4715847;30;20072;-80
2021/01/21 01:31:22;;;;;;;16.73;7.35;;;9.10;99.90;;;;;;4732118;30;20051;-79
2021/01/21 01:33:48;;;;;;;14.57;7.82;;;9.10;99.90;;;;;;4737462;30;20116;-80
2021/01/21 01:36:16;;;;;;;14.23;7.85;;;9.10;99.90;;;;;;4732859;30;20037;-80
2021/01/21 01:38:44;;;;;;;11.60;6.90;;;9.00;99.90;;;;;;4721520;30;20036;-79
2021/01/21 01:41:30;;;;;;;14.25;7.15;;;9.00;99.90;;;;;;4733701;30;20119;-80
2021/01/21 01:43:56;;;;;;;19.08;8.07;;;9.00;99.90;;;;;;4740337;30;20394;-80
2021/01/21 01:46:27;;;;;;;9.90;6.38;;;8.90;99.90;;;;;;4718462;30;20052;-80
2021/01/21 01:48:58;;;;;;;13.13;6.40;;;8.90;99.90;;;;;;4724111;30;20094;-80
2021/01/21 01:51:29;;;;;;;17.88;7.85;;;8.80;99.90;;;;;;4732575;30;20135;-80
2021/01/21 01:53:59;;;;;;;11.88;6.97;;;8.80;99.90;;;;;;4726328;30;20064;-80
2021/01/21 01:56:30;;;;;;;12.93;6.80;;;8.80;99.90;;;;;;4722873;30;20112;-80
2021/01/21 01:59:11;;;;;;;10.93;6.45;;;8.80;99.90;;;;;;4729672;30;20037;-80
2021/01/21 02:01:47;;;;;;;11.00;6.35;;;8.90;99.90;;;;;;4732885;30;20241;-80
2021/01/21 02:04:19;;;;;;;14.73;7.15;;;8.90;99.90;;;;;;4732294;30;20036;-80
2021/01/21 02:07:05;;;;;;;11.18;6.43;;;8.90;99.90;;;;;;4732298;30;20486;-80
2021/01/21 02:09:40;;;;;;;13.85;6.90;;;9.00;99.90;;;;;;4731807;30;20106;-80
2021/01/21 02:12:29;;;;;;;11.13;5.95;;;9.00;99.90;;;;;;4731265;30;20043;-81
2021/01/21 02:15:21;;;;;;;18.17;7.35;;;9.00;99.90;;;;;;4732226;30;20032;-80
2021/01/21 02:18:16;;;;;;;10.73;5.90;;;9.00;99.90;;;;;;4731180;30;20498;-81
2021/01/21 02:21:13;;;;;;;15.25;7.47;;;9.00;99.90;;;;;;4727201;30;20099;-80
2021/01/21 02:24:17;;;;;;;10.35;5.72;;;9.00;99.90;;;;;;4744920;30;20040;-80
2021/01/21 02:27:06;;;;;;;10.98;6.15;;;9.00;99.90;;;;;;4720135;30;20109;-80
2021/01/21 02:29:37;;;;;;;12.93;6.68;;;9.00;99.90;;;;;;4718144;30;20075;-80
2021/01/21 02:32:10;;;;;;;12.65;6.90;;;9.00;99.90;;;;;;4726697;30;20049;-80
2021/01/21 02:35:09;;;;;;;13.07;6.53;;;9.00;99.90;;;;;;4730108;30;20045;-81
2021/01/21 02:37:43;;;;;;;16.58;6.53;;;9.00;99.90;;;;;;4725857;30;20067;-80
2021/01/21 02:40:14;;;;;;;10.82;7.53;;;9.00;99.90;;;;;;4722845;30;20043;-80
2021/01/21 02:43:00;;;;;;;11.20;6.03;;;8.90;99.90;;;;;;4732950;30;20048;-81
2021/01/21 02:45:26;;;;;;;11.77;6.53;;;8.90;99.90;;;;;;4724581;30;20080;-80
2021/01/21 02:48:00;;;;;;;12.65;6.28;;;8.90;99.90;;;;;;4732691;30;20040;-81
2021/01/21 02:50:40;;;;;;;11.57;6.25;;;8.90;99.90;;;;;;4724486;30;20481;-80
2021/01/21 02:53:06;;;;;;;15.00;7.22;;;8.90;99.90;;;;;;4732959;30;20037;-80
2021/01/21 02:55:46;;;;;;;10.30;6.90;;;8.80;99.90;;;;;;4722556;30;20400;-80
2021/01/21 02:58:29;;;;;;;8.90;5.72;;;8.80;99.90;;;;;;4727021;30;20048;-80
2021/01/21 03:01:02;;;;;;;8.88;5.10;;;8.80;99.90;;;;;;4731803;30;20495;-80
2021/01/21 03:03:31;;;;;;;9.10;4.65;;;8.80;99.90;;;;;;4716488;30;20033;-80
2021/01/21 03:06:02;;;;;;;8.15;4.25;;;8.80;99.90;;;;;;4718057;30;20076;-80
2021/01/21 03:08:33;;;;;;;11.10;4.57;;;8.80;99.90;;;;;;4716023;30;20220;-80
2021/01/21 03:11:13;;;;;;;10.27;4.05;;;8.90;99.90;;;;;;4721481;30;20091;-80
2021/01/21 03:13:45;;;;;;;7.90;3.72;;;8.90;99.90;;;;;;4717249;30;20101;-79
2021/01/21 03:16:12;;;;;;;7.18;3.70;;;8.90;99.90;;;;;;4729763;30;20044;-79
2021/01/21 03:18:40;;;;;;;7.13;3.00;;;8.90;99.90;;;;;;4729359;30;20396;-80
2021/01/21 03:21:08;;;;;;;7.10;2.80;;;8.90;99.90;;;;;;4729494;30;20041;-80
2021/01/21 03:23:43;;;;;;;10.25;2.65;;;9.00;99.90;;;;;;4723003;30;20076;-80
2021/01/21 03:26:13;;;;;;;3.92;2.70;;;9.00;99.90;;;;;;4730456;30;20097;-80
2021/01/21 03:28:45;;;;;;;6.38;3.30;;;9.00;99.90;;;;;;4730209;30;20615;-80
2021/01/21 03:31:13;;;;;;;6.97;3.22;;;9.00;99.90;;;;;;4730905;30;20400;-80
2021/01/21 03:33:40;;;;;;;8.63;2.78;;;9.00;99.90;;;;;;4730791;30;20513;-80
2021/01/21 03:36:07;;;;;;;6.95;3.55;;;9.00;99.90;;;;;;4742222;30;20043;-80
2021/01/21 03:38:33;;;;;;;8.07;3.33;;;9.00;99.90;;;;;;4716205;30;20060;-79
2021/01/21 03:41:18;;;;;;;7.30;2.92;;;9.00;99.90;;;;;;4725393;30;20052;-80
2021/01/21 03:43:54;;;;;;;9.60;3.05;;;9.00;99.90;;;;;;4730672;30;20071;-80
2021/01/21 03:46:27;;;;;;;7.72;2.78;;;9.10;99.90;;;;;;4732743;30;20044;-80
2021/01/21 03:48:54;;;;;;;4.20;2.47;;;9.10;99.90;;;;;;4730717;30;20041;-80
2021/01/21 03:51:43;;;;;;;7.55;2.38;;;9.10;99.90;;;;;;4728118;30;20064;-79
2021/01/21 03:54:30;;;;;;;5.43;2.90;;;9.00;99.90;;;;;;4741647;30;20175;-80
2021/01/21 03:56:58;;;;;;;4.18;2.38;;;9.10;99.90;;;;;;4716253;30;20044;-80
2021/01/21 03:59:24;;;;;;;5.45;2.85;;;9.00;99.90;;;;;;4731727;30;20395;-80
2021/01/21 04:01:55;;;;;;;3.20;2.42;;;9.00;99.90;;;;;;4727654;30;20506;-80
2021/01/21 04:04:22;;;;;;;5.43;2.70;;;9.10;99.90;;;;;;4739864;30;20032;-79
2021/01/21 04:06:48;;;;;;;6.57;2.63;;;9.10;99.90;;;;;;4730336;30;20403;-80
2021/01/21 04:09:19;;;;;;;6.07;2.95;;;9.10;99.90;;;;;;4716731;30;20454;-80
2021/01/21 04:11:53;;;;;;;6.30;2.85;;;9.10;99.90;;;;;;4730036;30;20525;-80
2021/01/21 04:14:19;;;;;;;10.63;3.50;;;9.10;99.90;;;;;;4716199;30;20035;-80
2021/01/21 04:16:46;;;;;;;8.52;2.60;;;9.20;99.90;;;;;;4715318;30;20036;-80
2021/01/21 04:19:13;;;;;;;6.50;2.78;;;9.20;99.90;;;;;;4716109;30;20122;-80
2021/01/21 04:21:44;;;;;;;10.57;2.80;;;9.20;99.90;;;;;;4709092;30;20067;-79
2021/01/21 04:24:15;;;;;;;6.05;3.10;;;9.20;99.90;;;;;;4719643;30;20036;-80
2021/01/21 04:26:46;;;;;;;10.27;3.33;;;9.20;99.90;;;;;;4730212;30;20037;-80
2021/01/21 04:29:15;;;;;;;6.20;3.22;;;9.20;99.90;;;;;;4730138;30;20043;-79
2021/01/21 04:31:48;;;;;;;6.00;2.30;;;9.10;99.90;;;;;;4722502;30;20057;-80
2021/01/21 04:34:19;;;;;;;15.45;3.85;;;9.10;99.90;;;;;;4717783;30;20028;-80
2021/01/21 04:36:46;;;;;;;5.60;2.58;;;9.10;99.90;;;;;;4715631;30;20040;-79
2021/01/21 04:39:18;;;;;;;6.15;3.40;;;9.10;99.90;;;;;;4729934;30;20043;-80
2021/01/21 04:41:45;;;;;;;6.93;3.33;;;9.20;99.90;;;;;;4726459;30;20037;-79
2021/01/21 04:44:22;;;;;;;7.93;3.00;;;9.20;99.90;;;;;;4728977;30;20044;-80
2021/01/21 04:47:09;;;;;;;6.68;2.60;;;9.20;99.90;;;;;;4729695;30;20048;-80
2021/01/21 04:49:57;;;;;;;7.07;3.05;;;9.20;99.90;;;;;;4729859;30;20135;-80
2021/01/21 04:52:25;;;;;;;10.02;2.63;;;9.20;99.90;;;;;;4726547;30;20045;-79
2021/01/21 04:55:07;;;;;;;3.53;3.20;;;9.10;99.90;;;;;;4709843;30;20028;-79
2021/01/21 04:58:12;;;;;;;6.35;2.75;;;9.20;99.90;;;;;;4721611;30;20044;-80
2021/01/21 05:00:40;;;;;;;16.85;2.78;;;9.10;99.90;;;;;;4717004;30;20515;-80
2021/01/21 05:03:08;;;;;;;7.28;3.08;;;9.20;99.90;;;;;;4725413;30;20116;-80
2021/01/21 05:06:13;;;;;;;5.20;2.80;;;9.20;99.90;;;;;;4739201;30;20449;-79
2021/01/21 05:08:41;;;;;;;6.22;2.90;;;9.20;99.90;;;;;;4731879;30;20052;-80
2021/01/21 05:11:16;;;;;;;6.55;2.30;;;9.20;99.90;;;;;;4719496;30;20579;-80
2021/01/21 05:14:08;;;;;;;4.35;2.40;;;9.20;99.90;;;;;;4722253;30;20041;-80
2021/01/21 05:16:54;;;;;;;5.20;2.40;;;9.10;99.90;;;;;;4714534;30;20041;-79
2021/01/21 05:19:52;;;;;;;13.10;2.97;;;9.10;99.90;;;;;;4709308;30;20037;-80
2021/01/21 05:22:38;;;;;;;5.15;2.70;;;9.10;99.90;;;;;;4721672;30;20098;-80
2021/01/21 05:25:28;;;;;;;7.15;2.80;;;9.10;99.90;;;;;;4727572;30;20633;-80
2021/01/21 05:28:15;;;;;;;4.03;2.38;;;9.10;99.90;;;;;;4735029;30;20093;-80
2021/01/21 05:30:50;;;;;;;9.07;3.10;;;9.00;99.90;;;;;;4732988;30;20076;-80
2021/01/21 05:33:23;;;;;;;9.48;2.90;;;9.00;99.90;;;;;;4732460;30;20088;-80
2021/01/21 05:35:59;;;;;;;7.93;2.40;;;9.00;99.90;;;;;;4731283;30;21586;-80
2021/01/21 05:38:31;;;;;;;6.07;2.80;;;9.00;99.90;;;;;;4718854;30;20363;-80
2021/01/21 05:41:30;;;;;;;4.57;2.78;;;9.00;99.90;;;;;;4733263;30;20040;-80
2021/01/21 05:44:09;;;;;;;7.00;3.25;;;9.00;99.90;;;;;;4732338;30;20056;-79
2021/01/21 05:47:07;;;;;;;9.45;3.00;;;9.00;99.90;;;;;;4729328;30;20076;-80
2021/01/21 05:49:34;;;;;;;5.30;2.25;;;8.90;99.90;;;;;;4732858;30;20136;-80
2021/01/21 05:52:09;;;;;;;7.25;2.97;;;8.90;99.90;;;;;;4718682;30;20048;-80
2021/01/21 05:54:36;;;;;;;6.47;2.80;;;8.90;99.90;;;;;;4718097;30;20498;-81
2021/01/21 05:57:09;;;;;;;6.32;3.15;;;8.80;99.90;;;;;;4726223;30;20036;-80
2021/01/21 05:59:36;;;;;;;6.93;2.67;;;8.80;99.90;;;;;;4721208;30;20466;-78
2021/01/21 06:02:19;;;;;;;5.85;2.70;;;8.80;99.90;;;;;;4720344;30;20035;-79
2021/01/21 06:04:59;;;;;;;4.13;2.88;;;8.80;99.90;;;;;;4730710;30;20391;-79
2021/01/21 06:07:31;;;;;;;4.20;2.72;;;8.80;99.90;;;;;;4729331;30;20060;-79
2021/01/21 06:09:58;;;;;;;13.20;3.40;;;8.70;99.90;;;;;;4725935;30;20052;-79
2021/01/21 06:12:28;;;;;;;6.55;3.13;;;8.70;99.90;;;;;;4717806;30;20469;-78
2021/01/21 06:15:00;;;;;;;9.20;3.67;;;8.70;99.90;;;;;;4733545;30;20031;-79
2021/01/21 06:17:29;;;;;;;7.80;3.30;;;8.70;99.90;;;;;;4707897;30;20044;-79
2021/01/21 06:20:15;;;;;;;5.75;3.00;;;8.70;99.90;;;;;;4733966;30;20110;-79
2021/01/21 06:22:45;;;;;;;6.25;3.25;;;8.80;99.90;;;;;;4732688;30;20135;-79
2021/01/21 06:25:15;;;;;;;6.38;2.90;;;8.80;99.90;;;;;;4732105;30;20041;-79
2021/01/21 06:27:44;;;;;;;5.30;2.70;;;8.70;99.90;;;;;;4717906;30;20041;-79
2021/01/21 06:30:14;;;;;;;3.85;2.40;;;8.70;99.90;;;;;;4734038;30;20087;-79
2021/01/21 06:33:02;;;;;;;5.53;2.80;;;8.70;99.90;;;;;;4733443;30;20047;-79
2021/01/21 06:35:59;;;;;;;6.30;3.55;;;8.70;99.90;;;;;;4731850;30;20060;-79
2021/01/21 06:38:38;;;;;;;5.18;3.03;;;8.70;99.90;;;;;;4734074;30;20056;-79
2021/01/21 06:41:14;;;;;;;7.07;3.33;;;8.80;99.90;;;;;;4741967;30;20040;-79
2021/01/21 06:43:42;;;;;;;7.63;3.05;;;8.80;99.90;;;;;;4732438;30;20866;-79
2021/01/21 06:46:12;;;;;;;4.53;2.65;;;8.80;99.90;;;;;;4727960;30;20029;-79
2021/01/21 06:48:38;;;;;;;4.65;2.72;;;8.80;99.90;;;;;;4710963;30;20065;-79
2021/01/21 06:51:08;;;;;;;5.38;3.40;;;8.80;99.90;;;;;;4739420;30;20040;-80
2021/01/21 06:53:35;;;;;;;5.80;2.88;;;8.90;99.90;;;;;;4739313;30;20094;-79
2021/01/21 06:56:01;;;;;;;9.55;4.13;;;8.90;99.90;;;;;;4731797;30;20119;-79
2021/01/21 06:58:50;;;;;;;4.63;3.78;;;9.00;99.90;;;;;;4720835;30;20403;-79
2021/01/21 07:01:36;;;;;;;6.55;3.85;;;9.00;99.90;;;;;;4708618;30;20047;-79
2021/01/21 07:04:08;;;;;;;9.70;3.90;;;9.10;99.90;;;;;;4731715;30;20136;-79
2021/01/21 07:07:08;;;;;;;6.80;3.20;;;9.20;99.90;;;;;;4732625;30;20139;-79
2021/01/21 07:09:38;;;;;;;6.45;3.20;;;9.30;99.90;;;;;;4696175;30;20139;-78
2021/01/21 07:12:05;;;;;;;8.60;3.60;;;9.30;99.90;;;;;;4731453;30;20062;-79
2021/01/21 07:14:34;;;;;;;8.15;3.40;;;9.40;99.90;;;;;;4730821;30;20116;-79
2021/01/21 07:17:02;;;;;;;5.22;3.42;;;9.50;99.90;;;;;;4731398;30;20037;-79
2021/01/21 07:19:38;;;;;;;6.18;3.10;;;9.50;99.90;;;;;;4730868;30;20145;-79
2021/01/21 07:22:16;;;;;;;6.30;3.75;;;9.50;99.90;;;;;;4731478;30;20051;-79
2021/01/21 07:25:12;;;;;;;7.40;3.47;;;9.60;99.90;;;;;;4731533;30;20478;-78
2021/01/21 07:27:41;;;;;;;8.45;3.58;;;9.70;99.90;;;;;;4730119;30;20049;-79
2021/01/21 07:30:18;;;;;;;7.38;3.90;;;9.80;99.90;;;;;;4715983;30;20463;-79
2021/01/21 07:32:45;;;;;;;5.05;2.90;;;9.80;99.90;;;;;;4732218;30;20044;-79
2021/01/21 07:35:32;;;;;;;6.38;2.70;;;9.90;99.90;;;;;;4732222;30;20033;-79
2021/01/21 07:37:59;;;;;;;8.98;3.25;;;10.00;99.90;;;;;;4730882;30;20040;-79
2021/01/21 07:40:47;;;;;;;10.40;4.03;;;10.00;99.90;;;;;;4722456;30;20041;-79
2021/01/21 07:43:14;;;;;;;10.25;3.65;;;10.10;99.90;;;;;;4719515;30;20040;-79
2021/01/21 07:45:41;;;;;;;6.47;3.42;;;10.10;99.90;;;;;;4725383;30;20091;-79
2021/01/21 07:48:27;;;;;;;17.40;4.35;;;10.20;99.90;;;;;;4730709;30;20047;-79
2021/01/21 07:50:54;;;;;;;8.35;3.92;;;10.30;99.90;;;;;;4730506;30;20648;-80
2021/01/21 07:53:25;;;;;;;7.15;4.20;;;10.30;99.90;;;;;;4713573;30;20067;-78
2021/01/21 07:55:54;;;;;;;12.30;3.90;;;10.40;99.90;;;;;;4723876;30;20061;-79
2021/01/21 07:58:30;;;;;;;8.90;4.10;;;10.40;99.90;;;;;;4730529;30;20036;-78
2021/01/21 08:01:00;;;;;;;9.38;4.20;;;10.50;99.90;;;;;;4730981;30;20036;-78
2021/01/21 08:03:28;;;;;;;10.02;4.47;;;10.60;99.90;;;;;;4704472;30;20040;-78
2021/01/21 08:06:12;;;;;;;10.88;3.88;;;10.70;99.90;;;;;;4710857;30;20071;-82
2021/01/21 08:08:39;;;;;;;9.88;4.32;;;10.80;99.90;;;;;;4727921;30;20061;-83
2021/01/21 08:11:09;;;;;;;8.55;3.85;;;10.80;99.90;;;;;;4727863;30;20044;-78
2021/01/21 08:13:36;;;;;;;11.70;3.78;;;10.90;99.90;;;;;;4721376;30;20127;-82
2021/01/21 08:16:04;;;;;;;11.15;4.75;;;10.90;99.90;;;;;;4730794;30;20602;-82
2021/01/21 08:18:31;;;;;;;10.68;4.93;;;10.90;99.90;;;;;;4716381;30;20119;-82
2021/01/21 08:20:58;;;;;;;9.02;4.20;;;11.00;99.90;;;;;;4719213;30;20037;-83
2021/01/21 08:23:24;;;;;;;8.82;4.72;;;11.20;99.90;;;;;;4730685;30;20088;-83
2021/01/21 08:25:55;;;;;;;8.40;4.20;;;11.30;99.90;;;;;;4734409;30;20144;-83
2021/01/21 08:28:23;;;;;;;6.82;3.55;;;11.40;99.90;;;;;;4715149;30;20032;-82
2021/01/21 08:30:50;;;;;;;11.23;4.35;;;11.50;99.90;;;;;;4716332;30;20036;-82
2021/01/21 08:33:28;;;;;;;11.60;4.68;;;11.70;99.90;;;;;;4734086;30;20055;-82
2021/01/21 08:36:06;;;;;;;7.78;4.32;;;11.70;99.90;;;;;;4747905;30;20063;-82
2021/01/21 08:38:40;;;;;;;12.50;4.45;;;11.80;99.90;;;;;;4708823;30;20063;-81
2021/01/21 08:41:07;;;;;;;8.63;3.95;;;12.00;99.90;;;;;;4729756;30;20037;-80
2021/01/21 08:43:39;;;;;;;8.55;3.85;;;12.10;99.90;;;;;;4725884;30;20147;-80
2021/01/21 08:46:21;;;;;;;15.98;4.07;;;12.20;99.90;;;;;;4717137;30;20486;-81
2021/01/21 08:48:49;;;;;;;6.13;3.08;;;12.30;99.90;;;;;;4721888;30;20123;-80
2021/01/21 08:51:27;;;;;;;4.32;2.10;;;12.40;99.90;;;;;;4708256;30;20045;-80
2021/01/21 08:54:16;;;;;;;9.25;2.92;;;12.50;99.90;;;;;;4730092;30;20124;-80
2021/01/21 08:56:45;;;;;;;8.05;2.65;;;12.60;99.90;;;;;;4715585;30;20507;-81
2021/01/21 08:59:28;;;;;;;8.15;2.65;;;12.70;99.90;;;;;;4722571;30;20056;-81
2021/01/21 09:01:55;;;;;;;5.75;2.65;;;12.70;99.90;;;;;;4729925;30;20036;-81
2021/01/21 09:04:23;;;;;;;5.32;3.05;;;12.70;99.90;;;;;;4731194;30;20039;-81
2021/01/21 09:06:55;;;;;;;6.03;2.25;;;12.70;99.90;;;;;;4715210;30;20461;-81
2021/01/21 09:09:35;;;;;;;7.43;2.38;;;12.80;99.90;;;;;;4715315;30;20131;-80
2021/01/21 09:12:22;;;;;;;11.68;2.85;;;12.70;99.90;;;;;;4715192;30;20101;-80
2021/01/21 09:15:21;;;;;;;3.03;2.20;;;12.70;99.90;;;;;;4715338;30;20033;-80
2021/01/21 09:18:05;;;;;;;8.88;2.05;;;12.70;99.90;;;;;;4703147;30;20102;-81
2021/01/21 09:20:32;;;;;;;5.63;2.70;;;12.70;99.90;;;;;;4707563;30;20054;-81
2021/01/21 09:23:15;;;;;;;5.13;2.25;;;12.70;99.90;;;;;;4729755;30;20105;-81
2021/01/21 09:25:41;;;;;;;5.45;2.20;;;12.80;99.90;;;;;;4730090;30;20033;-81
2021/01/21 09:28:11;;;;;;;7.57;2.42;;;12.80;99.90;;;;;;4715157;30;20054;-81
2021/01/21 09:30:38;;;;;;;10.57;2.97;;;12.70;99.90;;;;;;4727385;30;20391;-82
2021/01/21 09:33:05;;;;;;;3.75;2.17;;;12.80;99.90;;;;;;4714393;30;20049;-81
2021/01/21 09:35:31;;;;;;;7.50;3.25;;;12.80;99.90;;;;;;4730232;30;20577;-81
2021/01/21 09:37:59;;;;;;;9.10;2.97;;;13.00;99.90;;;;;;4729719;30;20044;-81
2021/01/21 09:40:28;;;;;;;8.32;2.70;;;13.10;99.90;;;;;;4716333;30;20102;-82
2021/01/21 09:43:02;;;;;;;4.82;2.40;;;13.20;99.90;;;;;;4715199;30;20459;-81
2021/01/21 09:45:30;;;;;;;3.63;1.80;;;13.20;99.90;;;;;;4726467;30;20555;-80
2021/01/21 09:47:57;;;;;;;6.85;1.80;;;13.20;99.90;;;;;;4729935;30;20124;-81
2021/01/21 09:50:25;;;;;;;4.95;1.80;;;13.30;99.90;;;;;;4728822;30;20044;-81
2021/01/21 09:52:52;;;;;;;5.97;1.58;;;13.40;99.90;;;;;;4717325;30;20051;-81
2021/01/21 09:55:19;;;;;;;7.57;2.55;;;13.40;99.90;;;;;;4721712;30;20059;-80
2021/01/21 09:57:45;;;;;;;4.07;2.10;;;13.50;99.90;;;;;;4726807;30;20398;-81
2021/01/21 10:00:13;;;;;;;3.97;1.50;;;13.50;99.90;;;;;;4732750;30;20043;-83
2021/01/21 10:02:40;;;;;;;6.45;2.28;;;13.50;99.90;;;;;;4733671;30;20038;-84
2021/01/21 10:05:08;;;;;;;9.40;2.42;;;13.50;99.90;;;;;;4731116;30;20128;-81
2021/01/21 10:07:34;;;;;;;6.07;1.77;;;13.50;99.90;;;;;;4745366;30;20060;-80
2021/01/21 10:10:09;;;;;;;4.38;1.50;;;13.40;99.90;;;;;;4710718;30;20558;-80
2021/01/21 10:12:39;;;;;;;8.25;3.03;;;13.40;99.90;;;;;;4733102;30;20136;-84
2021/01/21 10:15:06;;;;;;;7.72;2.30;;;13.50;99.90;;;;;;4732632;30;20044;-72
2021/01/21 10:17:32;;;;;;;6.13;2.47;;;13.50;99.90;;;;;;4744602;30;20033;-72
2021/01/21 10:19:58;;;;;;;6.55;2.63;;;13.50;99.90;;;;;;4735185;30;20128;-74
2021/01/21 10:22:25;;;;;;;11.27;2.25;;;13.50;99.90;;;;;;4727594;30;20410;-75
2021/01/21 10:24:52;;;;;;;9.85;2.20;;;13.50;99.90;;;;;;4720076;30;20047;-76
2021/01/21 10:27:20;;;;;;;6.88;2.65;;;13.60;99.90;;;;;;4728424;30;20033;-76
2021/01/21 10:29:46;;;;;;;8.18;2.97;;;13.60;99.90;;;;;;4734549;30;20036;-76
2021/01/21 10:32:13;;;;;;;9.18;2.40;;;13.60;99.90;;;;;;4732953;30;20040;-76
2021/01/21 10:34:39;;;;;;;4.78;1.88;;;13.70;99.90;;;;;;4733635;30;20487;-78
2021/01/21 10:37:05;;;;;;;3.75;1.73;;;13.50;99.90;;;;;;4732368;30;20037;-78
2021/01/21 10:39:32;;;;;;;7.50;2.00;;;13.50;99.90;;;;;;4733156;30;20033;-80
2021/01/21 10:41:58;;;;;;;4.50;2.15;;;13.60;99.90;;;;;;4717272;30;20041;-80
2021/01/21 10:44:25;;;;;;;7.78;2.17;;;13.60;99.90;;;;;;4733504;30;20057;-79
2021/01/21 10:46:52;;;;;;;6.38;2.30;;;13.60;99.90;;;;;;4732103;30;20052;-81
2021/01/21 10:49:18;;;;;;;3.33;2.00;;;13.60;99.90;;;;;;4733026;30;20083;-76
2021/01/21 10:51:46;;;;;;;4.75;2.05;;;13.60;99.90;;;;;;4732932;30;20059;-76
2021/01/21 10:54:12;;;;;;;4.47;1.77;;;13.60;99.90;;;;;;4733298;30;20119;-76
2021/01/21 10:56:38;;;;;;;4.07;1.63;;;13.70;99.90;;;;;;4733119;30;20075;-76
2021/01/21 10:59:06;;;;;;;3.65;1.63;;;13.60;99.90;;;;;;4733131;30;20028;-77
2021/01/21 11:01:34;;;;;;;4.85;2.20;;;13.60;99.90;;;;;;4722087;30;20039;-76
2021/01/21 11:04:02;;;;;;;5.57;1.75;;;13.70;99.90;;;;;;4736218;30;20036;-76
2021/01/21 11:06:28;;;;;;;6.25;1.80;;;13.70;99.90;;;;;;4732661;30;20067;-75
2021/01/21 11:08:54;;;;;;;5.45;2.70;;;13.70;99.90;;;;;;4732978;30;20049;-76
2021/01/21 11:11:20;;;;;;;3.28;1.42;;;13.70;99.90;;;;;;4732515;30;20041;-76
2021/01/21 11:13:47;;;;;;;3.22;1.63;;;13.90;99.90;;;;;;4732137;30;20490;-76
2021/01/21 11:16:13;;;;;;;7.80;2.70;;;13.90;99.90;;;;;;4738378;30;20040;-75
2021/01/21 11:18:39;;;;;;;5.18;1.63;;;14.00;99.90;;;;;;4715623;30;20395;-75
2021/01/21 11:21:06;;;;;;;9.52;1.50;;;14.00;99.90;;;;;;4732541;30;20032;-75
2021/01/21 11:23:32;;;;;;;4.95;1.58;;;14.10;99.90;;;;;;4732613;30;20509;-75
2021/01/21 11:25:58;;;;;;;4.40;1.52;;;14.00;99.90;;;;;;4732349;30;20037;-73
2021/01/21 11:28:24;;;;;;;5.30;1.55;;;14.00;99.90;;;;;;4731947;30;20032;-72
2021/01/21 11:30:51;;;;;;;13.13;2.03;;;14.10;99.90;;;;;;4733253;30;20045;-73
2021/01/21 11:33:17;;;;;;;7.03;1.77;;;14.40;99.90;;;;;;4732519;30;20083;-73
2021/01/21 11:35:43;;;;;;;5.93;1.92;;;14.50;99.90;;;;;;4730983;30;20132;-73
2021/01/21 11:38:09;;;;;;;4.75;1.33;;;14.90;99.90;;;;;;4732102;30;20028;-73
2021/01/21 11:40:35;;;;;;;8.88;1.90;;;15.30;99.90;;;;;;4732303;30;20071;-73
2021/01/21 11:43:01;;;;;;;9.60;1.95;;;15.70;99.90;;;;;;4733898;30;20047;-76
2021/01/21 11:45:29;;;;;;;8.57;1.90;;;15.90;99.90;;;;;;4732119;30;20387;-76
2021/01/21 11:47:55;;;;;;;10.52;2.75;;;16.00;99.90;;;;;;4720458;30;20452;-77
2021/01/21 11:50:21;;;;;;;8.27;2.42;;;15.90;99.90;;;;;;4732409;30;20513;-79
2021/01/21 11:52:47;;;;;;;7.10;1.48;;;15.80;99.90;;;;;;4729843;30;20041;-78
2021/01/21 11:55:14;;;;;;;7.38;1.75;;;15.50;99.90;;;;;;4721389;30;20445;-78
2021/01/21 11:57:42;;;;;;;7.35;2.15;;;15.50;99.90;;;;;;4731085;30;20044;-76
2021/01/21 12:00:10;;;;;;;5.63;1.75;;;15.30;99.90;;;;;;4732281;30;20145;-80
2021/01/21 12:02:36;;;;;;;5.90;1.70;;;15.20;99.90;;;;;;4732378;30;20041;-77
2021/01/21 12:05:02;;;;;;;4.63;1.30;;;15.00;99.90;;;;;;4741884;30;20043;-79
2021/01/21 12:07:29;;;;;;;8.40;1.63;;;14.90;99.90;;;;;;4731972;30;20068;-79
2021/01/21 12:09:55;;;;;;;6.65;1.35;;;14.90;99.90;;;;;;4731175;30;20040;-78
2021/01/21 12:12:22;;;;;;;9.07;2.10;;;15.40;99.90;;;;;;4728687;30;20510;-84
2021/01/21 12:14:48;;;;;;;11.18;2.15;;;15.80;99.90;;;;;;4729815;30;20098;-81
2021/01/21 12:17:14;;;;;;;6.53;2.03;;;16.00;99.90;;;;;;4732031;30;20101;-77
2021/01/21 12:19:40;;;;;;;7.65;2.83;;;16.40;99.90;;;;;;4732194;30;20471;-77
2021/01/21 12:22:06;;;;;;;10.25;1.90;;;16.40;99.90;;;;;;4732244;30;20035;-80
2021/01/21 12:24:32;;;;;;;9.25;2.05;;;16.30;99.90;;;;;;4735386;30;20036;-78
2021/01/21 12:26:58;;;;;;;10.00;2.30;;;16.20;99.90;;;;;;4730042;30;20032;-76
2021/01/21 12:29:24;;;;;;;5.03;1.58;;;16.10;99.90;;;;;;4731303;30;20151;-76
2021/01/21 12:31:50;;;;;;;11.43;2.30;;;16.20;99.90;;;;;;4731891;30;20097;-78
2021/01/21 12:34:16;;;;;;;7.38;2.17;;;16.20;99.90;;;;;;4729868;30;20395;-77
2021/01/21 12:36:43;;;;;;;10.50;2.70;;;16.30;99.90;;;;;;4730494;30;20380;-78
2021/01/21 12:39:09;;;;;;;5.13;1.80;;;16.00;99.90;;;;;;4730356;30;20037;-78
2021/01/21 12:42:03;;;;;;;5.68;1.83;;;15.70;99.90;;;;;;4731414;30;20051;-79
2021/01/21 12:44:47;;;;;;;12.13;1.70;;;15.60;99.90;;;;;;4714192;30;20068;-80
2021/01/21 12:47:38;;;;;;;6.30;1.75;;;15.60;99.90;;;;;;4729573;30;20040;-80
2021/01/21 12:50:25;;;;;;;9.15;1.92;;;15.50;99.90;;;;;;4727981;30;20403;-82
2021/01/21 12:52:56;;;;;;;13.40;2.30;;;15.50;99.90;;;;;;4721955;30;20055;-81
2021/01/21 12:55:22;;;;;;;8.98;2.15;;;15.50;99.90;;;;;;4732257;30;20029;-82
2021/01/21 12:57:49;;;;;;;11.15;2.20;;;15.60;99.90;;;;;;4715426;30;20047;-81
2021/01/21 13:00:15;;;;;;;10.07;3.17;;;16.00;99.90;;;;;;4730781;30;20031;-81
2021/01/21 13:02:41;;;;;;;4.97;2.13;;;16.30;99.90;;;;;;4719891;30;20553;-81
2021/01/21 13:05:08;;;;;;;9.60;2.75;;;16.40;99.90;;;;;;4720549;30;20043;-81
2021/01/21 13:07:34;;;;;;;17.13;2.13;;;16.90;99.90;;;;;;4728886;30;20061;-82
2021/01/21 13:10:00;;;;;;;11.15;2.20;;;17.10;99.90;;;;;;4715417;30;20058;-81
2021/01/21 13:12:28;;;;;;;9.45;2.28;;;17.10;99.90;;;;;;4729595;30;20056;-81